Time;durP1;ratioP1;P1;durP2;ratioP2;P2;SDS_P1;SDS_P2;PMS_P1;PMS_P2;Temp;Humidity;BMP_temperature;BMP_pressure;BME280_temperature;BME280_humidity;BME280_pressure;Samples;Min_cycle;Max_cycle;Signal;HPM_P1;HPM_P2
2022/11/15 00:01:18;;;;;;;5.70;3.47;;;;;;;9.80;49.37;95704.06;4951109;29;20578;-65
2022/11/15 00:04:05;;;;;;;2.45;2.25;;;;;;;9.18;51.03;95711.63;4950006;28;20255;-65
2022/11/15 00:06:50;;;;;;;2.70;2.50;;;;;;;8.39;52.25;95711.22;4941608;28;20222;-65
2022/11/15 00:09:36;;;;;;;2.72;2.53;;;;;;;9.06;51.18;95708.22;4937417;29;20199;-65
2022/11/15 00:12:28;;;;;;;2.72;2.40;;;;;;;8.86;52.06;95712.97;4938018;29;20297;-65
2022/11/15 00:15:13;;;;;;;5.20;3.70;;;;;;;8.76;52.39;95702.25;4931628;29;20232;-64
2022/11/15 00:17:59;;;;;;;4.57;4.07;;;;;;;9.07;51.09;95704.56;4945108;28;20203;-65
2022/11/15 00:20:44;;;;;;;2.00;1.90;;;;;;;9.07;51.29;95703.75;4943601;28;20207;-65
2022/11/15 00:23:30;;;;;;;6.55;4.35;;;;;;;8.68;51.56;95713.03;4946397;28;20215;-65
2022/11/15 00:26:16;;;;;;;4.68;2.47;;;;;;;8.60;52.29;95708.09;4950697;29;20277;-65
2022/11/15 00:29:01;;;;;;;4.03;2.83;;;;;;;8.69;50.93;95701.53;4954959;28;20275;-66
2022/11/15 00:31:47;;;;;;;8.18;3.60;;;;;;;8.78;50.81;95694.97;4949720;28;20215;-65
2022/11/15 00:34:32;;;;;;;2.30;2.10;;;;;;;8.71;51.71;95694.28;4935482;29;20219;-67
2022/11/15 00:37:17;;;;;;;4.80;3.13;;;;;;;8.68;51.31;95694.75;4943776;28;20913;-65
2022/11/15 00:40:03;;;;;;;0.88;0.88;;;;;;;8.85;50.91;95682.59;4954918;28;20310;-65
2022/11/15 00:42:49;;;;;;;2.65;2.45;;;;;;;7.71;54.26;95694.16;4943262;28;20338;-65
2022/11/15 00:45:34;;;;;;;5.40;4.72;;;;;;;6.97;56.55;95689.09;4935325;29;20235;-64
2022/11/15 00:48:20;;;;;;;2.70;2.50;;;;;;;7.28;55.58;95693.44;4949813;28;20306;-64
2022/11/15 00:51:05;;;;;;;2.92;2.45;;;;;;;7.71;54.15;95671.50;4946702;28;20344;-65
2022/11/15 00:53:51;;;;;;;1.13;1.10;;;;;;;8.04;53.10;95671.91;4949384;28;20595;-66
2022/11/15 00:56:36;;;;;;;8.27;5.43;;;;;;;8.13;52.72;95688.03;4954406;29;20231;-67
2022/11/15 00:59:21;;;;;;;3.47;3.17;;;;;;;8.33;51.22;95686.00;4940654;29;20260;-66
2022/11/15 01:02:07;;;;;;;3.00;2.42;;;;;;;8.23;51.60;95684.91;4954305;29;20206;-66
2022/11/15 01:04:52;;;;;;;5.25;2.83;;;;;;;8.28;51.31;95683.25;4946799;29;20296;-66
2022/11/15 01:07:38;;;;;;;2.70;2.50;;;;;;;8.48;51.24;95681.16;4950509;28;20214;-65
2022/11/15 01:10:23;;;;;;;2.92;2.72;;;;;;;8.18;51.43;95682.94;4954086;29;20263;-65
2022/11/15 01:13:09;;;;;;;3.45;3.17;;;;;;;8.39;51.71;95679.09;4954199;29;20682;-67
2022/11/15 01:15:55;;;;;;;3.70;3.40;;;;;;;8.24;51.97;95676.88;4953335;28;20254;-66
2022/11/15 01:18:41;;;;;;;2.55;2.35;;;;;;;8.42;51.60;95679.44;4953792;28;20206;-65
2022/11/15 01:21:27;;;;;;;6.18;3.03;;;;;;;8.21;52.18;95677.31;4953507;28;20210;-65
2022/11/15 01:24:13;;;;;;;3.42;3.15;;;;;;;8.33;51.73;95680.78;4954038;28;20262;-65
2022/11/15 01:26:58;;;;;;;7.20;3.40;;;;;;;8.65;50.74;95669.03;4934336;29;20215;-64
2022/11/15 01:29:44;;;;;;;1.80;1.70;;;;;;;8.57;50.49;95672.00;4947748;29;20338;-65
2022/11/15 01:32:29;;;;;;;2.20;2.10;;;;;;;8.43;50.39;95678.41;4945555;29;20293;-64
2022/11/15 01:35:15;;;;;;;5.82;3.88;;;;;;;8.29;50.71;95674.41;4933084;29;20239;-65
2022/11/15 01:38:00;;;;;;;1.83;1.77;;;;;;;8.38;50.31;95667.84;4934167;29;20211;-66
2022/11/15 01:40:46;;;;;;;2.17;2.03;;;;;;;8.52;50.59;95677.06;4943074;28;20211;-65
2022/11/15 01:43:36;;;;;;;7.20;5.40;;;;;;;8.59;50.04;95671.78;4953219;28;20219;-66
2022/11/15 01:46:21;;;;;;;2.30;2.10;;;;;;;8.50;50.09;95675.72;4953416;29;20334;-65
2022/11/15 01:49:14;;;;;;;3.97;3.53;;;;;;;8.50;50.17;95681.75;4953331;28;20271;-66
2022/11/15 01:52:03;;;;;;;3.25;3.05;;;;;;;8.39;50.55;95673.88;4937531;28;20708;-66
2022/11/15 01:54:58;;;;;;;7.53;4.82;;;;;;;8.29;50.98;95671.78;4935505;29;20256;-64
2022/11/15 01:57:47;;;;;;;11.55;8.52;;;;;;;8.21;50.23;95666.88;4953273;29;20210;-66
2022/11/15 02:00:33;;;;;;;16.17;9.57;;;;;;;8.19;50.44;95668.91;4940483;29;20290;-64
2022/11/15 02:03:23;;;;;;;8.18;5.45;;;;;;;8.11;50.31;95671.81;4951096;28;20326;-65
2022/11/15 02:06:09;;;;;;;4.47;4.10;;;;;;;8.01;51.28;95671.53;4933839;29;20303;-65
2022/11/15 02:08:56;;;;;;;5.47;3.45;;;;;;;7.93;51.49;95677.06;4939694;29;20218;-65
2022/11/15 02:11:43;;;;;;;12.15;9.20;;;;;;;7.62;51.13;95674.59;4952184;28;20218;-64
2022/11/15 02:14:30;;;;;;;6.70;5.03;;;;;;;8.07;50.65;95661.00;4942837;29;20214;-63
2022/11/15 02:17:58;;;;;;;4.63;3.90;;;;;;;8.03;50.48;95659.84;4939500;29;20605;-64
2022/11/15 02:20:52;;;;;;;9.48;6.22;;;;;;;8.27;50.03;95671.22;4934246;28;20642;-64
2022/11/15 02:24:32;;;;;;;7.55;6.70;;;;;;;8.14;50.06;95669.53;4948036;29;20238;-63
2022/11/15 02:27:53;;;;;;;5.40;5.00;;;;;;;8.06;49.50;95663.84;4969559;28;20254;-64
2022/11/15 02:30:47;;;;;;;7.10;5.22;;;;;;;7.69;50.33;95667.50;4969749;28;20299;-63
2022/11/15 02:33:49;;;;;;;6.22;5.63;;;;;;;7.79;50.90;95668.56;4940392;29;20287;-66
2022/11/15 02:36:53;;;;;;;5.22;4.28;;;;;;;7.68;50.28;95669.31;4933582;29;20238;-65
2022/11/15 02:39:43;;;;;;;25.90;9.98;;;;;;;7.82;49.68;95664.75;4933801;29;20220;-65
2022/11/15 02:45:49;;;;;;;12.50;9.25;;;;;;;7.45;50.53;95663.16;4945989;28;20294;-64
2022/11/15 02:48:36;;;;;;;11.68;7.38;;;;;;;7.54;50.65;95660.03;4943498;28;20596;-65
2022/11/15 02:51:22;;;;;;;8.75;6.22;;;;;;;7.46;50.43;95662.16;4941890;29;20231;-64
2022/11/15 02:54:12;;;;;;;10.27;4.50;;;;;;;7.73;49.44;95668.66;4949449;29;20316;-65
2022/11/15 02:57:16;;;;;;;9.43;6.53;;;;;;;7.55;50.33;95669.47;4952757;29;20943;-64
2022/11/15 03:00:06;;;;;;;4.03;3.30;;;;;;;7.56;49.92;95672.84;4943471;29;20274;-64
2022/11/15 03:02:54;;;;;;;15.25;7.72;;;;;;;7.68;49.49;95671.13;4932887;29;20211;-66
2022/11/15 03:05:52;;;;;;;4.65;3.92;;;;;;;7.32;50.87;95677.13;4945847;29;20239;-67
2022/11/15 03:09:07;;;;;;;9.98;3.88;;;;;;;7.28;51.09;95670.75;4942220;29;20283;-65
2022/11/15 03:12:03;;;;;;;5.93;3.17;;;;;;;7.35;51.58;95665.47;4952244;28;20718;-65
2022/11/15 03:14:57;;;;;;;2.47;2.33;;;;;;;7.19;51.97;95667.63;4946517;28;20210;-65
2022/11/15 03:17:58;;;;;;;15.57;6.32;;;;;;;7.02;52.61;95647.56;4933735;29;20707;-66
2022/11/15 03:20:46;;;;;;;6.10;3.47;;;;;;;7.18;52.47;95665.25;4940006;29;20329;-65
2022/11/15 03:23:32;;;;;;;5.00;3.05;;;;;;;7.17;52.85;95669.66;4951487;29;20674;-66
2022/11/15 03:26:21;;;;;;;4.82;2.20;;;;;;;7.38;52.32;95662.44;4951263;29;20210;-65
2022/11/15 03:29:24;;;;;;;2.70;2.50;;;;;;;7.53;51.36;95662.88;4951612;28;20207;-65
2022/11/15 03:32:15;;;;;;;10.60;5.18;;;;;;;7.27;51.85;95643.09;4940298;28;20214;-64
2022/11/15 03:35:24;;;;;;;8.00;5.28;;;;;;;7.26;52.48;95661.56;4947699;29;20211;-64
2022/11/15 03:38:25;;;;;;;1.88;1.77;;;;;;;6.85;53.56;95659.53;4934692;28;20211;-65
2022/11/15 03:41:35;;;;;;;5.53;4.47;;;;;;;7.08;53.21;95642.28;4939657;29;20211;-64
2022/11/15 03:44:35;;;;;;;2.65;2.45;;;;;;;7.16;52.77;95647.22;4932270;29;20227;-65
2022/11/15 03:48:07;;;;;;;5.72;4.45;;;;;;;6.71;53.71;95635.41;4939365;29;20210;-64
2022/11/15 03:50:53;;;;;;;3.75;3.40;;;;;;;6.75;53.60;95638.38;4946596;28;20617;-64
2022/11/15 03:53:40;;;;;;;4.18;3.00;;;;;;;7.18;52.81;95639.97;4932382;29;20215;-63
2022/11/15 03:56:26;;;;;;;3.10;2.90;;;;;;;7.17;52.88;95640.97;4943459;29;20223;-65
2022/11/15 03:59:11;;;;;;;3.35;3.00;;;;;;;7.18;52.84;95637.38;4931394;29;20274;-64
2022/11/15 04:01:57;;;;;;;6.18;4.43;;;;;;;7.35;52.02;95634.19;4943295;29;20350;-64
2022/11/15 04:04:43;;;;;;;2.10;2.00;;;;;;;7.07;53.37;95632.88;4945433;28;20275;-65
2022/11/15 04:07:28;;;;;;;1.58;1.48;;;;;;;7.49;51.75;95626.00;4946241;29;20290;-64
2022/11/15 04:10:14;;;;;;;7.75;4.30;;;;;;;7.27;52.12;95627.44;4950864;28;20351;-66
2022/11/15 04:13:02;;;;;;;1.73;1.63;;;;;;;7.48;52.30;95629.63;4947069;29;20214;-65
2022/11/15 04:15:47;;;;;;;7.65;5.18;;;;;;;7.31;52.24;95627.81;4944684;29;20290;-66
2022/11/15 04:18:32;;;;;;;3.28;2.33;;;;;;;7.37;52.36;95632.16;4951334;29;20203;-64
2022/11/15 04:24:22;;;;;;;7.63;3.72;;;;;;;7.34;51.84;95622.16;4950919;28;20335;-64
2022/11/15 04:27:07;;;;;;;6.85;4.00;;;;;;;6.92;52.55;95616.78;4951157;28;20219;-66
2022/11/15 04:29:53;;;;;;;1.67;1.58;;;;;;;7.21;51.81;95617.09;4937467;29;20223;-65
2022/11/15 04:32:38;;;;;;;7.05;4.70;;;;;;;7.25;52.21;95618.25;4951100;28;20202;-67
2022/11/15 04:35:23;;;;;;;10.43;7.35;;;;;;;7.15;52.52;95624.75;4950668;29;20306;-66
2022/11/15 04:38:10;;;;;;;3.42;3.17;;;;;;;6.86;52.80;95615.03;4950771;28;20354;-67
2022/11/15 04:40:56;;;;;;;7.40;5.25;;;;;;;6.86;53.60;95630.66;4950967;29;20214;-64
2022/11/15 04:43:41;;;;;;;10.27;3.65;;;;;;;6.72;54.16;95629.19;4945678;29;20207;-64
2022/11/15 04:46:27;;;;;;;2.13;1.98;;;;;;;6.92;54.19;95626.38;4944403;28;20242;-66
2022/11/15 04:49:12;;;;;;;2.20;2.00;;;;;;;7.03;54.71;95625.69;4939989;29;20271;-66
2022/11/15 04:51:57;;;;;;;14.45;4.22;;;;;;;7.19;54.72;95620.72;4935323;29;20211;-65
2022/11/15 04:54:43;;;;;;;8.18;6.78;;;;;;;7.22;54.47;95609.06;4938981;29;20666;-65
2022/11/15 04:57:29;;;;;;;2.47;2.28;;;;;;;7.43;54.31;95626.06;4948018;28;20258;-65
2022/11/15 05:00:16;;;;;;;1.60;1.50;;;;;;;7.33;54.61;95621.38;4930988;29;20207;-65
2022/11/15 05:06:06;;;;;;;0.85;0.85;;;;;;;7.27;56.41;95616.22;4933376;29;20367;-65
2022/11/15 05:08:52;;;;;;;2.70;2.53;;;;;;;7.62;55.76;95625.84;4944014;28;20263;-63
2022/11/15 05:11:38;;;;;;;4.32;4.00;;;;;;;7.80;55.38;95630.25;4941765;29;20203;-63
2022/11/15 05:14:23;;;;;;;3.38;3.17;;;;;;;7.72;56.10;95626.13;4938549;29;20223;-64
2022/11/15 05:17:09;;;;;;;1.05;1.05;;;;;;;7.79;55.87;95631.28;4934966;29;20239;-65
2022/11/15 05:19:54;;;;;;;5.63;1.88;;;;;;;7.63;56.79;95631.84;4948454;29;20227;-65
2022/11/15 05:22:40;;;;;;;2.03;1.90;;;;;;;7.45;61.45;95629.25;4948544;29;20214;-65
2022/11/15 05:25:25;;;;;;;2.53;2.40;;;;;;;7.63;62.02;95610.97;4953881;29;20223;-65
2022/11/15 05:28:11;;;;;;;3.42;2.78;;;;;;;7.97;58.20;95624.19;4954042;28;20662;-64
2022/11/15 05:31:04;;;;;;;5.97;3.25;;;;;;;8.07;57.85;95613.22;4940097;29;20267;-65
2022/11/15 05:33:51;;;;;;;3.40;3.10;;;;;;;7.46;59.52;95630.88;4953387;28;20215;-66
2022/11/15 05:36:41;;;;;;;11.18;6.30;;;;;;;7.61;59.25;95631.31;4934698;29;20315;-68
2022/11/15 05:39:27;;;;;;;2.35;2.03;;;;;;;7.72;58.79;95625.34;4947739;28;20557;-66
2022/11/15 05:42:15;;;;;;;0.93;0.93;;;;;;;7.93;58.37;95625.66;4943549;28;20219;-65
2022/11/15 05:45:03;;;;;;;7.05;3.42;;;;;;;8.16;57.48;95619.72;4952908;28;20276;-60
2022/11/15 05:47:50;;;;;;;4.13;2.10;;;;;;;8.28;58.88;95631.03;4953251;29;20227;-65
2022/11/15 05:50:39;;;;;;;1.45;1.35;;;;;;;7.72;61.26;95625.34;4948570;28;20212;-64
2022/11/15 05:53:25;;;;;;;1.65;1.50;;;;;;;8.15;60.18;95620.75;4944766;29;20210;-64
2022/11/15 05:56:12;;;;;;;2.00;1.90;;;;;;;7.80;60.58;95627.63;4953431;29;20251;-66
2022/11/15 05:58:58;;;;;;;2.13;1.95;;;;;;;7.63;61.46;95616.19;4939862;28;20240;-65
2022/11/15 06:01:44;;;;;;;4.70;2.75;;;;;;;8.24;60.36;95622.06;4944029;28;20210;-66
2022/11/15 06:04:29;;;;;;;2.50;2.30;;;;;;;8.24;60.36;95619.44;4951333;29;20734;-65
2022/11/15 06:07:15;;;;;;;4.30;2.75;;;;;;;8.03;61.14;95635.56;4953047;29;20207;-64
2022/11/15 06:10:00;;;;;;;1.85;1.75;;;;;;;8.26;59.28;95617.41;4953039;28;20298;-64
2022/11/15 06:12:46;;;;;;;1.58;1.48;;;;;;;7.88;63.21;95630.72;4950748;28;20351;-67
2022/11/15 06:15:34;;;;;;;1.75;1.63;;;;;;;8.29;60.38;95637.84;4933590;29;20211;-65
2022/11/15 06:18:19;;;;;;;3.13;1.23;;;;;;;8.61;59.17;95630.53;4952816;29;20199;-64
2022/11/15 06:21:05;;;;;;;3.03;0.85;;;;;;;8.40;61.03;95623.22;4938050;29;20232;-66
2022/11/15 06:23:51;;;;;;;2.97;2.10;;;;;;;8.75;58.20;95637.94;4943647;28;20211;-66
2022/11/15 06:26:36;;;;;;;0.38;0.38;;;;;;;8.97;57.22;95636.38;4935416;29;20275;-63
2022/11/15 06:29:21;;;;;;;0.10;0.10;;;;;;;8.94;57.35;95631.59;4933508;29;20203;-61
2022/11/15 06:32:07;;;;;;;3.85;3.08;;;;;;;8.92;57.08;95631.00;4946761;29;20203;-62
2022/11/15 06:34:52;;;;;;;2.22;1.77;;;;;;;8.75;57.46;95637.16;4949210;29;20270;-65
2022/11/15 06:37:38;;;;;;;0.68;0.68;;;;;;;8.26;59.13;95633.06;4949757;28;20969;-64
2022/11/15 06:40:23;;;;;;;0.35;0.35;;;;;;;8.12;60.91;95631.63;4936429;29;20220;-63
2022/11/15 06:43:09;;;;;;;1.48;0.77;;;;;;;8.76;59.71;95623.84;4949561;29;20203;-62
2022/11/15 06:45:54;;;;;;;0.35;0.35;;;;;;;8.88;58.44;95627.28;4936978;29;20254;-64
2022/11/15 06:48:40;;;;;;;0.45;0.45;;;;;;;8.80;57.62;95625.00;4939432;29;20214;-63
2022/11/15 06:51:25;;;;;;;1.25;1.23;;;;;;;9.06;56.86;95624.56;4941254;29;20276;-62
2022/11/15 06:54:10;;;;;;;2.47;1.70;;;;;;;8.80;57.87;95625.00;4935825;29;20206;-65
2022/11/15 06:56:56;;;;;;;1.65;1.55;;;;;;;9.21;57.28;95622.25;4940367;29;20239;-64
2022/11/15 06:59:41;;;;;;;3.63;1.38;;;;;;;9.23;56.64;95623.84;4945189;29;20195;-65
2022/11/15 07:02:27;;;;;;;1.83;1.70;;;;;;;9.32;56.41;95619.88;4947627;28;20214;-63
2022/11/15 07:05:13;;;;;;;1.60;1.50;;;;;;;9.18;57.13;95622.72;4951666;29;20687;-64
2022/11/15 07:07:59;;;;;;;1.35;0.93;;;;;;;9.11;56.65;95619.44;4938294;29;20249;-62
2022/11/15 07:10:44;;;;;;;2.38;1.95;;;;;;;8.88;57.85;95619.44;4951726;28;20214;-63
2022/11/15 07:13:35;;;;;;;11.57;2.20;;;;;;;8.81;58.47;95620.56;4932753;29;20219;-61
2022/11/15 07:16:21;;;;;;;1.95;0.75;;;;;;;9.00;57.70;95622.84;4949278;28;20608;-65
2022/11/15 07:19:08;;;;;;;0.90;0.80;;;;;;;9.12;57.67;95618.41;4951461;29;20578;-62
2022/11/15 07:21:53;;;;;;;7.63;2.83;;;;;;;8.64;59.01;95617.81;4951365;29;20709;-65
2022/11/15 07:24:39;;;;;;;0.45;0.45;;;;;;;8.95;57.65;95611.47;4951240;29;20203;-62
2022/11/15 07:27:24;;;;;;;1.27;1.17;;;;;;;9.12;57.38;95605.31;4940798;28;20219;-63
2022/11/15 07:30:11;;;;;;;2.55;1.42;;;;;;;9.00;57.09;95612.38;4931943;29;20207;-66
2022/11/15 07:33:00;;;;;;;4.28;3.85;;;;;;;9.30;56.38;95619.31;4945500;28;20227;-64
2022/11/15 07:35:49;;;;;;;4.20;1.55;;;;;;;9.06;56.37;95618.53;4941549;29;20364;-62
2022/11/15 07:38:36;;;;;;;1.15;1.08;;;;;;;9.05;56.65;95616.94;4937288;29;20266;-65
2022/11/15 07:41:26;;;;;;;2.58;1.75;;;;;;;9.29;56.52;95612.50;4950534;28;20642;-65
2022/11/15 07:44:12;;;;;;;1.25;1.15;;;;;;;9.07;56.14;95620.91;4933972;29;20207;-65
2022/11/15 07:46:57;;;;;;;1.67;1.63;;;;;;;9.27;56.50;95611.94;4948919;28;20243;-64
2022/11/15 07:49:43;;;;;;;0.57;0.57;;;;;;;9.40;56.09;95614.31;4938727;29;20215;-63
2022/11/15 07:52:28;;;;;;;2.75;1.95;;;;;;;9.16;56.01;95603.84;4934268;29;20868;-66
2022/11/15 07:55:13;;;;;;;3.65;1.50;;;;;;;9.12;55.99;95602.72;4931420;29;20227;-66
2022/11/15 07:58:10;;;;;;;1.30;1.20;;;;;;;9.30;56.41;95606.22;4938312;28;20642;-68
2022/11/15 08:00:55;;;;;;;0.45;0.45;;;;;;;9.17;56.79;95609.88;4948213;29;20604;-65
2022/11/15 08:03:41;;;;;;;4.22;2.90;;;;;;;9.16;56.54;95614.31;4931764;29;20659;-69
2022/11/15 08:06:27;;;;;;;2.20;2.08;;;;;;;9.10;56.29;95609.97;4950923;29;20750;-68
2022/11/15 08:09:13;;;;;;;5.00;2.85;;;;;;;9.07;56.68;95604.41;4935442;29;20348;-65
2022/11/15 08:11:59;;;;;;;2.13;1.92;;;;;;;9.34;55.98;95609.97;4931621;29;20302;-67
2022/11/15 08:14:44;;;;;;;0.25;0.25;;;;;;;9.52;55.80;95601.97;4944726;29;20215;-68
2022/11/15 08:17:32;;;;;;;2.85;2.58;;;;;;;9.23;56.59;95609.75;4944184;29;21141;-67
2022/11/15 08:20:19;;;;;;;0.85;0.85;;;;;;;9.23;57.40;95600.31;4942164;29;20314;-67
2022/11/15 08:23:05;;;;;;;2.90;2.20;;;;;;;9.52;56.66;95601.97;4934889;29;20730;-66
2022/11/15 08:25:51;;;;;;;0.88;0.88;;;;;;;9.42;56.93;95596.53;4950750;29;20707;-66
2022/11/15 08:28:36;;;;;;;1.10;1.10;;;;;;;9.54;56.50;95594.69;4951179;28;20623;-65
2022/11/15 08:31:22;;;;;;;0.38;0.38;;;;;;;9.21;57.50;95596.09;4948906;28;20263;-67
2022/11/15 08:34:08;;;;;;;3.88;1.90;;;;;;;9.09;57.75;95600.56;4941782;29;20934;-67
2022/11/15 08:36:53;;;;;;;2.17;2.08;;;;;;;8.93;57.99;95609.09;4931828;29;20227;-66
2022/11/15 08:39:39;;;;;;;0.20;0.20;;;;;;;9.06;58.63;95603.66;4931815;29;20355;-65
2022/11/15 08:42:24;;;;;;;3.03;2.10;;;;;;;9.27;57.50;95598.84;4939614;29;20271;-67
2022/11/15 08:45:10;;;;;;;2.45;2.25;;;;;;;9.09;58.48;95591.91;4939326;29;20222;-65
2022/11/15 08:47:56;;;;;;;1.42;1.38;;;;;;;9.33;57.78;95592.69;4942780;29;20340;-66
2022/11/15 08:50:43;;;;;;;3.80;3.03;;;;;;;9.25;58.39;95588.63;4936368;29;20214;-65
2022/11/15 08:53:28;;;;;;;1.60;1.52;;;;;;;9.27;58.00;95583.16;4946199;29;20421;-65
2022/11/15 08:56:15;;;;;;;1.27;1.00;;;;;;;9.50;57.82;95589.13;4948249;29;20211;-67
2022/11/15 08:59:00;;;;;;;4.72;2.65;;;;;;;9.24;57.62;95579.19;4949463;28;20804;-68
2022/11/15 09:01:45;;;;;;;3.13;2.92;;;;;;;9.12;57.86;95579.19;4954467;28;20210;-68
2022/11/15 09:04:31;;;;;;;1.17;1.10;;;;;;;9.23;57.73;95561.09;4940785;28;20250;-65
2022/11/15 09:07:18;;;;;;;5.85;1.85;;;;;;;9.56;57.52;95551.56;4954399;29;20703;-65
2022/11/15 09:10:03;;;;;;;6.65;2.13;;;;;;;9.57;56.92;95561.00;4944770;28;20211;-64
2022/11/15 09:12:49;;;;;;;5.18;2.90;;;;;;;9.73;55.52;95559.47;4954181;28;20690;-65
2022/11/15 09:15:35;;;;;;;0.80;0.70;;;;;;;9.90;55.70;95552.47;4942439;29;20214;-65
2022/11/15 09:18:22;;;;;;;2.15;2.00;;;;;;;9.65;56.20;95546.78;4934673;29;20299;-65
2022/11/15 09:21:09;;;;;;;3.63;1.98;;;;;;;9.73;56.18;95551.63;4947827;29;20203;-67
2022/11/15 09:23:56;;;;;;;5.65;3.65;;;;;;;10.06;54.90;95539.41;4944524;28;20214;-66
2022/11/15 09:26:41;;;;;;;9.32;3.70;;;;;;;9.70;55.65;95546.84;4948292;29;20240;-67
2022/11/15 09:29:27;;;;;;;6.90;2.72;;;;;;;9.01;58.87;95546.00;4947598;29;20335;-67
2022/11/15 09:32:28;;;;;;;2.55;2.35;;;;;;;9.65;57.09;95538.94;4944260;29;20342;-68
2022/11/15 09:35:20;;;;;;;1.75;1.48;;;;;;;9.62;56.64;95528.91;4953649;28;20222;-68
2022/11/15 09:38:05;;;;;;;4.07;2.03;;;;;;;9.96;56.27;95509.66;4939677;29;21005;-67
2022/11/15 09:41:13;;;;;;;5.95;3.47;;;;;;;9.93;56.72;95520.56;4953250;28;20864;-68
2022/11/15 09:44:17;;;;;;;5.40;4.80;;;;;;;9.79;56.48;95519.28;4953089;28;20218;-68
2022/11/15 09:47:28;;;;;;;1.15;1.13;;;;;;;9.82;55.93;95518.81;4953005;28;20478;-65
2022/11/15 09:50:30;;;;;;;1.50;1.40;;;;;;;10.01;55.89;95507.91;4949923;29;20239;-66
2022/11/15 09:52:57;;;;;;;2.03;1.85;;;;;;;10.08;55.31;95503.31;4934150;29;20200;-68
2022/11/15 09:55:35;;;;;;;2.83;2.35;;;;;;;10.54;54.14;95498.81;4945910;28;20585;-67
2022/11/15 09:58:22;;;;;;;5.10;3.47;;;;;;;10.64;53.66;95501.56;4953085;28;20676;-67
2022/11/15 10:00:52;;;;;;;0.80;0.80;;;;;;;9.89;55.75;95480.22;4953249;28;20279;-65
2022/11/15 10:03:33;;;;;;;6.90;3.77;;;;;;;10.65;53.89;95488.25;4944972;28;20192;-65
2022/11/15 10:06:03;;;;;;;3.03;2.83;;;;;;;10.26;54.48;95489.22;4936250;29;20539;-65
2022/11/15 10:08:40;;;;;;;1.63;1.53;;;;;;;10.48;54.44;95470.94;4944086;29;20460;-68
2022/11/15 10:11:10;;;;;;;5.33;4.83;;;;;;;10.93;54.20;95477.59;4949767;29;20533;-66
2022/11/15 10:14:01;;;;;;;3.00;2.80;;;;;;;10.84;53.68;95471.19;4952847;28;20459;-67
2022/11/15 10:16:28;;;;;;;6.90;2.47;;;;;;;11.28;53.35;95461.50;4952561;28;20502;-65
2022/11/15 10:19:02;;;;;;;4.47;4.03;;;;;;;10.54;54.14;95468.16;4942391;28;20216;-65
2022/11/15 10:22:03;;;;;;;1.43;1.33;;;;;;;10.75;54.99;95467.41;4950775;28;20465;-68
2022/11/15 10:24:37;;;;;;;4.38;3.95;;;;;;;10.86;54.39;95450.75;4952496;28;20548;-65
2022/11/15 10:27:11;;;;;;;5.50;2.53;;;;;;;11.27;52.75;95448.63;4944680;28;20766;-67
2022/11/15 10:29:46;;;;;;;5.37;2.97;;;;;;;11.53;52.34;95459.13;4947884;28;20459;-68
2022/11/15 10:32:15;;;;;;;4.77;3.40;;;;;;;12.26;51.51;95439.31;4952334;28;21020;-65
2022/11/15 10:34:43;;;;;;;7.67;4.50;;;;;;;11.69;52.72;95447.78;4938539;28;20480;-66
2022/11/15 10:37:10;;;;;;;5.43;2.90;;;;;;;11.76;52.80;95434.44;4945424;28;20562;-66
2022/11/15 10:39:39;;;;;;;5.17;3.10;;;;;;;12.58;51.23;95429.53;4946235;29;21069;-66
2022/11/15 10:42:28;;;;;;;39.60;4.77;;;;;;;13.06;50.00;95427.44;4952583;28;20526;-65
2022/11/15 10:44:55;;;;;;;5.23;1.77;;;;;;;11.91;51.53;95421.47;4952065;28;20549;-66
2022/11/15 10:47:28;;;;;;;5.97;4.30;;;;;;;12.22;51.78;95413.53;4952489;28;20452;-67
2022/11/15 10:50:25;;;;;;;3.17;2.97;;;;;;;12.26;50.90;95416.47;4938942;28;20456;-69
2022/11/15 10:52:53;;;;;;;4.13;3.77;;;;;;;12.69;49.84;95400.44;4939523;29;20457;-67
2022/11/15 10:55:25;;;;;;;7.83;5.23;;;;;;;12.98;49.64;95406.88;4951706;28;20506;-67
2022/11/15 10:58:27;;;;;;;6.00;3.83;;;;;;;13.68;48.19;95402.88;4932496;28;20480;-66
2022/11/15 11:00:54;;;;;;;5.20;4.07;;;;;;;13.29;48.07;95393.81;4947895;28;20902;-66
2022/11/15 11:03:29;;;;;;;3.47;3.23;;;;;;;13.27;48.34;95395.91;4932695;29;20445;-68
2022/11/15 11:06:26;;;;;;;5.63;3.57;;;;;;;13.02;48.69;95384.28;4945739;29;20545;-66
2022/11/15 11:09:01;;;;;;;1.83;1.73;;;;;;;13.68;48.08;95371.25;4947717;29;20463;-69
2022/11/15 11:11:55;;;;;;;3.00;2.80;;;;;;;12.75;49.21;95377.59;4946467;28;20454;-68
2022/11/15 11:14:24;;;;;;;5.20;3.50;;;;;;;13.11;48.41;95369.59;4946424;28;20454;-66
2022/11/15 11:16:55;;;;;;;9.23;4.57;;;;;;;12.84;49.23;95371.56;4940129;29;21150;-65
2022/11/15 11:19:36;;;;;;;3.13;2.83;;;;;;;13.28;49.01;95350.16;4950801;28;20462;-67
2022/11/15 11:22:17;;;;;;;2.37;2.17;;;;;;;12.69;49.84;95363.63;4952011;28;20452;-65
2022/11/15 11:25:12;;;;;;;3.87;2.67;;;;;;;12.94;49.74;95350.56;4934520;28;20456;-67
2022/11/15 11:28:19;;;;;;;2.77;2.60;;;;;;;13.28;48.53;95350.16;4932246;29;20476;-66
2022/11/15 11:31:11;;;;;;;4.33;3.93;;;;;;;13.34;48.90;95346.47;4932193;29;20448;-67
2022/11/15 11:33:48;;;;;;;5.17;4.07;;;;;;;12.32;50.37;95325.34;4938169;29;20440;-68
2022/11/15 11:36:40;;;;;;;2.83;2.63;;;;;;;13.14;48.75;95329.59;4951094;28;20842;-65
2022/11/15 11:39:19;;;;;;;1.63;1.53;;;;;;;13.26;49.43;95325.94;4930659;29;20523;-67
2022/11/15 11:42:21;;;;;;;2.63;1.63;;;;;;;14.25;47.33;95308.47;4934690;29;21176;-66
2022/11/15 11:45:10;;;;;;;9.27;4.37;;;;;;;14.20;45.80;95290.06;4967587;28;20809;-65
2022/11/15 11:47:44;;;;;;;1.67;1.57;;;;;;;14.33;46.11;95294.78;4933881;28;20448;-67
2022/11/15 11:50:26;;;;;;;1.37;1.20;;;;;;;15.72;43.30;95294.28;4931647;29;20455;-66
2022/11/15 11:53:02;;;;;;;2.83;2.63;;;;;;;16.46;41.57;95291.16;4938526;29;20454;-67
2022/11/15 11:55:42;;;;;;;2.67;2.57;;;;;;;16.30;41.70;95291.59;4950786;28;20438;-68
2022/11/15 11:58:21;;;;;;;4.80;4.17;;;;;;;16.91;40.50;95280.06;4932171;29;21050;-66
2022/11/15 12:01:08;;;;;;;6.37;3.17;;;;;;;17.38;39.10;95275.66;4947079;29;20451;-68
2022/11/15 12:03:45;;;;;;;4.07;3.37;;;;;;;16.71;40.02;95268.94;4940464;28;20480;-66
2022/11/15 12:06:30;;;;;;;5.77;3.03;;;;;;;17.84;38.49;95264.09;4932090;29;20449;-65
2022/11/15 12:09:05;;;;;;;1.63;1.50;;;;;;;18.61;38.07;95251.78;4944101;29;20455;-67
2022/11/15 12:11:52;;;;;;;3.13;2.93;;;;;;;18.62;37.40;95248.06;4931624;29;20571;-66
2022/11/15 12:14:43;;;;;;;3.47;2.37;;;;;;;18.43;37.30;95244.72;4945260;29;20514;-67
2022/11/15 12:17:12;;;;;;;3.20;2.83;;;;;;;18.99;37.26;95247.00;4942220;29;21022;-66
2022/11/15 12:19:40;;;;;;;7.57;4.23;;;;;;;19.23;36.30;95225.50;4936878;28;20902;-66
2022/11/15 12:22:18;;;;;;;4.47;3.03;;;;;;;19.10;36.89;95238.50;4951152;28;20455;-65
2022/11/15 12:24:58;;;;;;;3.50;3.20;;;;;;;19.31;36.19;95230.06;4937056;28;20451;-69
2022/11/15 12:27:57;;;;;;;4.13;3.73;;;;;;;19.74;36.42;95210.69;4940346;29;20460;-67
2022/11/15 12:30:40;;;;;;;5.23;3.03;;;;;;;20.71;33.84;95218.44;4939164;28;20480;-65
2022/11/15 12:33:37;;;;;;;4.50;4.03;;;;;;;20.24;34.17;95208.59;4950698;28;20462;-67
2022/11/15 12:36:40;;;;;;;5.53;3.43;;;;;;;20.72;33.08;95204.03;4950615;28;20452;-67
2022/11/15 12:39:12;;;;;;;4.27;3.47;;;;;;;21.22;33.50;95206.28;4931191;29;20507;-66
2022/11/15 12:41:57;;;;;;;5.10;3.63;;;;;;;21.47;33.92;95203.59;4944747;29;20452;-68
2022/11/15 12:44:47;;;;;;;5.43;3.37;;;;;;;22.09;32.25;95193.28;4942437;29;20530;-67
2022/11/15 12:47:26;;;;;;;4.10;2.97;;;;;;;21.89;31.41;95184.09;4953750;28;20483;-66
2022/11/15 12:49:53;;;;;;;14.43;4.97;;;;;;;21.67;31.28;95180.81;4950648;28;20458;-69
2022/11/15 12:52:21;;;;;;;3.50;2.87;;;;;;;22.02;31.63;95176.97;4932269;28;20252;-66
2022/11/15 12:54:54;;;;;;;5.33;3.90;;;;;;;21.21;31.80;95184.19;4939485;29;20447;-66
2022/11/15 12:57:29;;;;;;;2.17;1.97;;;;;;;21.37;31.75;95179.16;4950188;28;20648;-67
2022/11/15 13:00:06;;;;;;;4.23;3.37;;;;;;;22.23;31.16;95182.38;4950911;28;20207;-66
2022/11/15 13:02:45;;;;;;;4.93;3.60;;;;;;;21.43;31.87;95175.22;4948197;28;20704;-66
2022/11/15 13:05:22;;;;;;;7.97;3.40;;;;;;;21.83;32.12;95184.56;4941326;29;20206;-65
2022/11/15 13:07:49;;;;;;;4.37;3.67;;;;;;;21.72;31.76;95172.63;4949337;28;20447;-67
2022/11/15 13:10:16;;;;;;;2.17;2.07;;;;;;;21.43;32.45;95172.53;4950985;28;20447;-66
2022/11/15 13:12:45;;;;;;;3.27;2.97;;;;;;;20.92;32.34;95160.81;4948727;28;20204;-68
2022/11/15 13:15:12;;;;;;;10.33;4.80;;;;;;;21.32;31.97;95163.31;4939485;28;20455;-65
2022/11/15 13:17:50;;;;;;;2.63;2.37;;;;;;;21.02;31.86;95165.84;4950611;28;20444;-65